»·PEaware :: N256Z KMRY-KHND

N256Z :: KMRY-KHND

FLIGHT INFORMATION

Flight Status: Arrived
Operator: Privately registered:
United States
More flights under this callsign
Pilot: Gregory A. (9731)
Aircraft: PIPER PA-46-500TP MALIBU MERIDIAN
(P46T)
More flights by this aircraft type
Origin: KMRY Monterey Peninsula
United States
Destination: KHND Henderson
United States
More flights between these airports :: More routes between these airports
Route: +MRY4 SNS J110 FUZZY FUZZY8
File this flight plan on PilotEdge
Remarks: Note that J110 is available on weekend days at or above FL290 - today is Sunday ;)
Altitude:
(Current/Filed)
290ft
Speed:
(Current/Filed)
280kts
Departed: 22-Jul-18 09:27 AM
Arrived: 22-Jul-18 10:55 AM
Distance/Time
Traveled:
326nm/1:28
Distance/Time
To Go:
Arrived

Flight Plot

Page will automatically refresh every two minutes.

Flight plan parsing failed; only flown route is shown


Map Options




Map Legend


Flown Route
Filed Route
Departure Airport
Arrival Airport
Navaid (VOR, NDB)
Fix

Horizontal Profiles

Position Reports

Time Latitude Longitude Heading Altitude Ground
Speed
22-Jul-18 09:10 36.589337 -121.857861 343 209ft 0kts
22-Jul-18 09:11 36.589337 -121.857861 343 209ft 0kts
22-Jul-18 09:12 36.589337 -121.857861 343 209ft 0kts
22-Jul-18 09:13 36.589337 -121.857861 343 209ft 0kts
22-Jul-18 09:14 36.589337 -121.857861 343 209ft 0kts
22-Jul-18 09:15 36.589338 -121.857861 343 209ft 0kts
22-Jul-18 09:16 36.589339 -121.857862 343 209ft 0kts
22-Jul-18 09:17 36.589341 -121.857863 343 209ft 0kts
22-Jul-18 09:18 36.589343 -121.857864 343 209ft 0kts
22-Jul-18 09:19 36.589345 -121.857864 343 209ft 0kts
22-Jul-18 09:20 36.589347 -121.857865 343 209ft 0kts
22-Jul-18 09:21 36.589437 -121.857221 114 209ft 2kts
22-Jul-18 09:22 36.589303 -121.853805 103 209ft 14kts
22-Jul-18 09:23 36.587859 -121.849345 111 209ft 13kts
22-Jul-18 09:24 36.585609 -121.843126 113 209ft 23kts
22-Jul-18 09:25 36.583064 -121.835553 111 209ft 19kts
22-Jul-18 09:26 36.582843 -121.834577 92 209ft 0kts
22-Jul-18 09:27 36.582859 -121.834082 83 209ft 13kts
22-Jul-18 09:28 36.587968 -121.847127 292 211ft 117kts
22-Jul-18 09:29 36.604711 -121.894282 313 1589ft 177kts
22-Jul-18 09:30 36.651866 -121.918449 341 3555ft 185kts
22-Jul-18 09:31 36.699854 -121.937764 341 5937ft 175kts
22-Jul-18 09:32 36.745192 -121.951811 14 6990ft 174kts
22-Jul-18 09:33 36.746470 -121.899562 114 6998ft 185kts
22-Jul-18 09:34 36.729401 -121.842764 111 8088ft 170kts
22-Jul-18 09:35 36.713496 -121.782786 108 10114ft 190kts
22-Jul-18 09:36 36.697241 -121.717568 108 12117ft 200kts
22-Jul-18 09:37 36.680032 -121.651635 110 14111ft 199kts
22-Jul-18 09:38 36.670120 -121.585471 66 16105ft 199kts
22-Jul-18 09:39 36.689454 -121.525615 102 18143ft 211kts
22-Jul-18 09:40 36.687940 -121.444903 87 19001ft 252kts
22-Jul-18 09:41 36.696687 -121.356540 83 19000ft 261kts
22-Jul-18 09:42 36.707629 -121.266983 82 19174ft 258kts
22-Jul-18 09:43 36.718279 -121.183057 82 20553ft 236kts
22-Jul-18 09:44 36.728633 -121.101190 82 22154ft 246kts
22-Jul-18 09:45 36.739461 -121.015166 82 23758ft 255kts
22-Jul-18 09:46 36.750494 -120.927279 82 25359ft 257kts
22-Jul-18 09:47 36.761656 -120.837757 82 26742ft 267kts
22-Jul-18 09:48 36.773177 -120.744669 82 27947ft 274kts
22-Jul-18 09:49 36.784820 -120.650045 82 29016ft 282kts
22-Jul-18 09:50 36.797096 -120.549020 82 29135ft 304kts
22-Jul-18 09:51 36.810043 -120.442928 82 29136ft 310kts
22-Jul-18 09:52 36.822862 -120.336176 82 29137ft 312kts
22-Jul-18 09:53 36.835619 -120.229208 82 29138ft 312kts
22-Jul-18 09:54 36.848288 -120.121804 82 29139ft 312kts
22-Jul-18 09:55 36.860858 -120.014721 82 29140ft 312kts
22-Jul-18 09:56 36.873447 -119.907078 82 29141ft 313kts
22-Jul-18 09:57 36.876408 -119.799419 99 29142ft 310kts
22-Jul-18 09:58 36.863221 -119.693348 103 29140ft 309kts
22-Jul-18 09:59 36.847385 -119.587682 104 29141ft 309kts
22-Jul-18 10:00 36.830894 -119.482627 105 29142ft 308kts
22-Jul-18 10:01 36.814127 -119.377734 105 29146ft 308kts
22-Jul-18 10:02 36.797147 -119.272491 105 29151ft 308kts
22-Jul-18 10:03 36.780099 -119.167633 105 29151ft 309kts
22-Jul-18 10:04 36.762936 -119.062724 105 29151ft 309kts
22-Jul-18 10:05 36.745630 -118.957563 105 29153ft 309kts
22-Jul-18 10:06 36.728242 -118.852590 105 29152ft 311kts
22-Jul-18 10:07 36.710647 -118.746926 105 29178ft 309kts
22-Jul-18 10:08 36.693080 -118.642019 105 29185ft 309kts
22-Jul-18 10:09 36.675404 -118.537090 105 29184ft 310kts
22-Jul-18 10:10 36.657577 -118.431871 105 29184ft 310kts
22-Jul-18 10:11 36.639696 -118.326909 105 29176ft 310kts
22-Jul-18 10:12 36.621679 -118.221385 105 29166ft 311kts
22-Jul-18 10:13 36.603517 -118.116189 105 29166ft 311kts
22-Jul-18 10:14 36.585322 -118.011131 106 29166ft 311kts
22-Jul-18 10:15 36.566945 -117.905727 106 29166ft 311kts
22-Jul-18 10:16 36.548545 -117.800722 106 29166ft 311kts
22-Jul-18 10:17 36.530058 -117.695765 106 29166ft 311kts
22-Jul-18 10:18 36.511418 -117.590504 106 29164ft 311kts
22-Jul-18 10:19 36.492758 -117.485631 106 29162ft 311kts
22-Jul-18 10:20 36.473995 -117.380814 106 29162ft 311kts
22-Jul-18 10:21 36.455062 -117.275632 106 29079ft 313kts
22-Jul-18 10:22 36.435542 -117.168156 106 28430ft 322kts
22-Jul-18 10:23 36.415643 -117.059042 106 27754ft 323kts
22-Jul-18 10:24 36.395806 -116.950617 106 27079ft 321kts
22-Jul-18 10:25 36.376047 -116.843027 106 26405ft 319kts
22-Jul-18 10:26 36.356259 -116.735803 106 25728ft 317kts
22-Jul-18 10:27 36.336571 -116.629641 106 25054ft 315kts
22-Jul-18 10:28 36.316943 -116.524289 106 24377ft 312kts
22-Jul-18 10:29 36.297366 -116.419632 106 23455ft 309kts
22-Jul-18 10:30 36.277913 -116.316100 106 22415ft 305kts
22-Jul-18 10:31 36.261085 -116.224825 106 20637ft 241kts
22-Jul-18 10:32 36.246978 -116.148637 106 18637ft 217kts
22-Jul-18 10:33 36.233616 -116.077669 105 16640ft 207kts
22-Jul-18 10:34 36.220255 -116.007276 105 16021ft 238kts
22-Jul-18 10:35 36.203573 -115.923039 109 16011ft 260kts
22-Jul-18 10:36 36.175587 -115.840048 116 16010ft 262kts
22-Jul-18 10:37 36.144676 -115.757844 117 16009ft 263kts
22-Jul-18 10:38 36.113540 -115.675847 117 16008ft 263kts
22-Jul-18 10:39 36.082383 -115.593776 116 16006ft 264kts
22-Jul-18 10:40 36.051153 -115.511095 117 15132ft 253kts
22-Jul-18 10:41 36.033878 -115.431769 100 13940ft 232kts
22-Jul-18 10:42 36.025080 -115.354424 97 12735ft 221kts
22-Jul-18 10:43 36.019043 -115.280721 94 11536ft 212kts
22-Jul-18 10:44 36.013696 -115.208962 95 10338ft 207kts
22-Jul-18 10:45 36.008646 -115.138536 94 9136ft 202kts
22-Jul-18 10:46 36.004139 -115.070331 94 8102ft 192kts
22-Jul-18 10:47 35.999142 -115.007332 111 8011ft 190kts
22-Jul-18 10:48 35.949790 -114.992512 184 8013ft 202kts
22-Jul-18 10:49 35.893380 -114.997655 184 7898ft 206kts
22-Jul-18 10:50 35.834376 -115.003536 192 7202ft 206kts
22-Jul-18 10:51 35.820139 -115.048053 281 6626ft 185kts
22-Jul-18 10:52 35.852134 -115.085425 353 5786ft 185kts
22-Jul-18 10:53 35.891629 -115.113256 327 4323ft 147kts
22-Jul-18 10:54 35.930104 -115.130884 342 2943ft 146kts
22-Jul-18 10:55 35.971777 -115.135455 359 2504ft 119kts
22-Jul-18 10:56 35.980253 -115.136333 235 2496ft 0kts
22-Jul-18 10:57 35.978041 -115.137680 224 2496ft 10kts
22-Jul-18 10:58 35.977295 -115.138034 179 2496ft 0kts
22-Jul-18 10:59 35.977294 -115.138034 179 2496ft 0kts
22-Jul-18 11:00 35.977294 -115.138034 179 2496ft 0kts
22-Jul-18 11:01 35.977294 -115.138034 179 2496ft 0kts
22-Jul-18 11:02 35.977294 -115.138034 179 2496ft 0kts
22-Jul-18 11:03 35.977294 -115.138034 179 2496ft 0kts
22-Jul-18 11:04 35.977294 -115.138034 179 2496ft 0kts
22-Jul-18 11:05 35.977294 -115.138034 179 2496ft 0kts
22-Jul-18 11:06 35.977294 -115.138034 179 2496ft 0kts
22-Jul-18 11:07 35.977294 -115.138034 179 2496ft 0kts
22-Jul-18 11:08 35.977294 -115.138034 179 2496ft 0kts
22-Jul-18 11:09 35.977294 -115.138034 179 2496ft 0kts
22-Jul-18 11:10 35.977294 -115.138034 179 2496ft 0kts

Navigation Log

Ident Type
Flight plan parsing failed, navigation log unavailable